Time;durP1;ratioP1;P1;durP2;ratioP2;P2;SDS_P1;SDS_P2;PMS_P1;PMS_P2;Temp;Humidity;BMP_temperature;BMP_pressure;BME280_temperature;BME280_humidity;BME280_pressure;Samples;Min_cycle;Max_cycle;Signal;HPM_P1;HPM_P2
2023/09/16 15:23:18;;;;;;;8.90;4.20;;;;;;;26.16;31.51;100167.49;79911;1304;3013200;-70
2023/09/16 15:25:44;;;;;;;9.20;4.50;;;;;;;26.13;31.65;100168.99;79207;1302;3014934;-70
2023/09/16 15:28:15;;;;;;;9.00;5.60;;;;;;;26.06;31.96;100168.14;79346;1300;3013625;-68
2023/09/16 15:30:43;;;;;;;8.40;5.80;;;;;;;25.97;32.19;100166.64;77922;1301;3052721;-73
2023/09/16 15:33:10;;;;;;;9.70;5.70;;;;;;;25.76;32.58;100168.63;79204;1303;3012727;-74
2023/09/16 15:35:36;;;;;;;7.80;5.80;;;;;;;25.49;33.19;100168.13;77292;1301;3011852;-69
2023/09/16 15:38:06;;;;;;;6.60;4.60;;;;;;;25.21;33.69;100168.38;78479;1291;3026266;-71
2023/09/16 15:40:32;;;;;;;8.40;5.80;;;;;;;24.86;34.30;100165.17;79804;1292;3013458;-70
2023/09/16 15:42:59;;;;;;;9.50;6.10;;;;;;;24.62;34.94;100162.39;79764;1293;3011775;-75
2023/09/16 15:45:29;;;;;;;11.80;6.30;;;;;;;24.43;35.60;100170.02;78502;1297;3052361;-68
2023/09/16 15:47:55;;;;;;;10.20;6.00;;;;;;;24.20;36.27;100170.71;79953;1294;3013109;-75
2023/09/16 15:50:23;;;;;;;23.30;13.40;;;;;;;23.98;36.80;100170.67;79596;1292;3013575;-68
2023/09/16 15:52:50;;;;;;;19.30;12.10;;;;;;;23.80;37.20;100173.83;78371;1296;3049871;-68
2023/09/16 15:55:17;;;;;;;27.40;15.90;;;;;;;23.66;37.53;100176.55;80042;1293;3018602;-67
2023/09/16 15:57:44;;;;;;;25.60;15.70;;;;;;;23.51;37.62;100173.94;80033;1292;3011602;-68
2023/09/16 16:00:12;;;;;;;29.80;17.70;;;;;;;23.42;37.74;100172.77;78718;1291;3026495;-70
2023/09/16 16:02:40;;;;;;;24.50;16.00;;;;;;;23.25;38.26;100179.09;79889;1294;3013358;-64
2023/09/16 16:05:09;;;;;;;19.90;12.70;;;;;;;23.14;38.27;100174.74;79295;1292;3013416;-68
2023/09/16 16:07:36;;;;;;;19.40;11.00;;;;;;;23.01;38.84;100174.11;80019;1292;3012637;-68
2023/09/16 16:10:06;;;;;;;17.20;8.90;;;;;;;22.91;39.16;100180.09;79780;1292;3011605;-66
2023/09/16 16:12:34;;;;;;;11.70;8.10;;;;;;;22.77;39.22;100181.06;78528;1297;3050120;-68
2023/09/16 16:15:01;;;;;;;12.80;8.40;;;;;;;22.67;39.57;100185.10;79863;1292;3020960;-70
2023/09/16 16:17:33;;;;;;;12.40;7.80;;;;;;;22.56;39.90;100189.79;78633;1295;3069256;-71
2023/09/16 16:20:00;;;;;;;13.30;7.60;;;;;;;22.49;40.02;100190.16;79825;1297;3013751;-67
2023/09/16 16:22:26;;;;;;;20.20;12.70;;;;;;;22.36;40.49;100188.15;79903;1295;3011767;-68
2023/09/16 16:24:54;;;;;;;25.60;15.00;;;;;;;22.27;40.54;100189.91;78646;1292;3052246;-68
2023/09/16 16:27:21;;;;;;;22.60;13.10;;;;;;;22.19;40.67;100192.88;79946;1296;3013541;-69
2023/09/16 16:29:48;;;;;;;22.40;13.40;;;;;;;22.08;41.08;100194.36;79824;1295;3011494;-71
2023/09/16 16:32:17;;;;;;;20.50;13.60;;;;;;;22.00;41.48;100199.59;78664;1295;3028445;-68
2023/09/16 16:34:46;;;;;;;21.50;12.90;;;;;;;21.91;41.63;100205.06;79857;1294;3013388;-71
2023/09/16 16:37:14;;;;;;;21.10;12.00;;;;;;;21.76;41.89;100206.89;78578;1297;3028469;-67
2023/09/16 16:39:40;;;;;;;13.30;8.20;;;;;;;21.63;42.13;100207.87;79864;1293;3020885;-70
2023/09/16 16:42:07;;;;;;;12.80;7.70;;;;;;;21.54;42.35;100210.67;79946;1293;3012299;-68
2023/09/16 16:44:35;;;;;;;11.60;7.50;;;;;;;21.45;42.71;100209.52;78770;1295;3025854;-69
2023/09/16 16:47:02;;;;;;;11.90;7.50;;;;;;;21.33;43.24;100212.09;79587;1294;3018848;-68
2023/09/16 16:49:28;;;;;;;11.50;7.10;;;;;;;21.23;43.56;100213.41;79927;1295;3011871;-73
2023/09/16 16:51:56;;;;;;;8.40;6.50;;;;;;;21.14;43.79;100213.84;78626;1293;3026694;-69
2023/09/16 16:54:24;;;;;;;11.50;6.80;;;;;;;21.08;43.85;100215.02;79827;1292;3018840;-66
2023/09/16 16:56:51;;;;;;;10.40;6.90;;;;;;;20.99;44.00;100213.17;79806;1292;3011692;-66
2023/09/16 16:59:18;;;;;;;14.20;7.20;;;;;;;20.89;44.38;100213.86;78574;1294;3051824;-70
2023/09/16 17:01:45;;;;;;;10.70;6.90;;;;;;;20.79;44.73;100215.35;79957;1295;3012940;-70
2023/09/16 17:04:11;;;;;;;13.20;6.90;;;;;;;20.73;44.94;100221.39;79819;1295;3011868;-71
2023/09/16 17:06:39;;;;;;;12.40;7.40;;;;;;;20.69;44.99;100217.67;78632;1292;3026550;-68
2023/09/16 17:09:06;;;;;;;17.50;6.80;;;;;;;20.58;45.33;100223.98;79924;1291;3013068;-67
2023/09/16 17:11:32;;;;;;;10.90;7.20;;;;;;;20.51;45.52;100227.28;79785;1295;3011295;-71
2023/09/16 17:14:01;;;;;;;10.50;6.90;;;;;;;20.46;45.52;100228.48;78645;1295;3027761;-67
2023/09/16 17:16:31;;;;;;;10.00;7.00;;;;;;;20.30;45.91;100231.95;79621;1295;3013079;-68
2023/09/16 17:18:59;;;;;;;12.20;7.10;;;;;;;20.18;46.24;100235.16;78454;1295;3069557;-70
2023/09/16 17:21:26;;;;;;;11.10;6.60;;;;;;;20.10;46.63;100237.14;79678;1295;3018818;-69
2023/09/16 17:23:52;;;;;;;14.70;7.50;;;;;;;20.03;46.71;100238.66;79808;1293;3011872;-68
2023/09/16 17:26:20;;;;;;;12.60;7.30;;;;;;;20.04;46.63;100237.86;78527;1297;3027926;-65
2023/09/16 17:28:48;;;;;;;12.20;7.40;;;;;;;20.01;46.71;100242.23;79791;1293;3011474;-65
2023/09/16 17:31:15;;;;;;;13.90;6.90;;;;;;;19.94;46.88;100242.82;79776;1292;3011767;-66
2023/09/16 17:33:45;;;;;;;16.90;7.70;;;;;;;19.89;47.00;100242.05;78512;1294;3070080;-66
2023/09/16 17:36:11;;;;;;;10.90;7.30;;;;;;;19.80;47.44;100247.56;79807;1297;3013439;-69
2023/09/16 17:38:38;;;;;;;16.80;8.30;;;;;;;19.72;47.51;100248.63;79647;1297;3011643;-71
2023/09/16 17:41:07;;;;;;;19.00;7.60;;;;;;;19.67;47.92;100249.07;78628;1293;3026597;-67
2023/09/16 17:43:34;;;;;;;13.70;7.20;;;;;;;19.61;48.18;100246.71;79751;1294;3011718;-65
2023/09/16 17:46:00;;;;;;;11.90;7.20;;;;;;;19.53;48.55;100253.91;79662;1297;3013114;-70
2023/09/16 17:48:28;;;;;;;13.10;7.00;;;;;;;19.45;48.65;100247.67;78656;1292;3069165;-68
2023/09/16 17:50:56;;;;;;;11.80;7.50;;;;;;;19.45;49.11;100248.79;79760;1293;3013191;-68
2023/09/16 17:53:24;;;;;;;11.80;7.80;;;;;;;19.37;49.13;100250.52;79506;1293;3011532;-67
2023/09/16 17:55:53;;;;;;;17.00;7.40;;;;;;;19.30;49.21;100254.81;78485;1295;3052203;-66
2023/09/16 17:58:20;;;;;;;13.00;7.50;;;;;;;19.26;49.11;100255.13;79862;1297;3012540;-68
2023/09/16 18:00:47;;;;;;;14.50;7.10;;;;;;;19.23;49.01;100253.51;79768;1296;3013028;-68
2023/09/16 18:03:16;;;;;;;11.50;7.00;;;;;;;19.22;49.74;100251.65;78521;1292;3070260;-68
2023/09/16 18:05:42;;;;;;;13.50;6.70;;;;;;;19.21;49.20;100255.09;79656;1294;3013775;-64
2023/09/16 18:08:09;;;;;;;12.40;6.90;;;;;;;19.19;49.59;100253.85;79780;1293;3011740;-65
2023/09/16 18:10:38;;;;;;;16.00;7.50;;;;;;;19.05;50.03;100256.41;78463;1293;3026033;-67
2023/09/16 18:13:05;;;;;;;11.50;6.90;;;;;;;19.00;50.18;100255.95;79725;1296;3012040;-65
2023/09/16 18:15:32;;;;;;;16.70;7.40;;;;;;;19.00;50.19;100256.10;79717;1297;3011901;-67
2023/09/16 18:18:03;;;;;;;12.30;6.90;;;;;;;18.93;50.57;100258.80;78429;1295;3069397;-68
2023/09/16 18:20:30;;;;;;;10.70;6.60;;;;;;;18.91;50.43;100259.33;79805;1293;3011878;-65
2023/09/16 18:23:02;;;;;;;10.80;6.60;;;;;;;18.90;50.72;100263.65;79229;1296;3012893;-67
2023/09/16 18:25:28;;;;;;;10.70;6.70;;;;;;;18.87;50.84;100260.52;79723;1292;3013234;-68
2023/09/16 18:27:57;;;;;;;10.40;6.20;;;;;;;18.85;50.91;100267.48;79238;1295;3011857;-66
2023/09/16 18:30:24;;;;;;;11.20;6.50;;;;;;;18.84;50.94;100265.20;79705;1296;3014893;-67
2023/09/16 18:32:51;;;;;;;13.30;6.80;;;;;;;18.77;51.07;100271.23;79753;1293;3011680;-65
2023/09/16 18:35:19;;;;;;;12.30;7.30;;;;;;;18.71;51.06;100273.90;78646;1296;3068928;-66
2023/09/16 18:37:46;;;;;;;12.80;7.10;;;;;;;18.70;51.34;100277.91;79755;1296;3012911;-67
2023/09/16 18:40:13;;;;;;;15.20;7.60;;;;;;;18.64;51.50;100276.08;79756;1293;3011790;-67
2023/09/16 18:42:42;;;;;;;15.30;7.20;;;;;;;18.55;51.99;100277.67;78571;1292;3052396;-72
2023/09/16 18:45:11;;;;;;;12.60;7.60;;;;;;;18.54;51.84;100281.44;79899;1297;3012977;-70
2023/09/16 18:47:37;;;;;;;11.30;7.00;;;;;;;18.50;52.25;100282.32;79749;1296;3011626;-67
2023/09/16 18:50:06;;;;;;;11.10;6.90;;;;;;;18.43;52.21;100281.09;78138;1298;3069116;-67
2023/09/16 18:52:33;;;;;;;9.80;6.60;;;;;;;18.39;52.08;100277.73;79853;1292;3013363;-72
2023/09/16 18:55:00;;;;;;;9.20;6.80;;;;;;;18.38;52.07;100277.80;79741;1293;3011541;-71
2023/09/16 18:57:28;;;;;;;17.60;7.40;;;;;;;18.32;52.46;100280.77;78535;1295;3053487;-72
2023/09/16 18:59:54;;;;;;;11.40;6.30;;;;;;;18.29;52.48;100281.34;80149;1297;3013274;-73
2023/09/16 19:02:21;;;;;;;11.90;6.80;;;;;;;18.28;52.52;100278.61;79892;1292;3011573;-73
2023/09/16 19:04:51;;;;;;;11.70;7.20;;;;;;;18.25;52.41;100279.17;78478;1297;3069646;-67
2023/09/16 19:07:19;;;;;;;15.20;7.40;;;;;;;18.22;52.82;100277.67;79472;1297;3013206;-72
2023/09/16 19:09:48;;;;;;;10.40;6.40;;;;;;;18.16;52.76;100278.89;79231;1292;3011840;-66
2023/09/16 19:12:14;;;;;;;8.70;6.30;;;;;;;18.15;52.66;100278.23;79889;1295;3013417;-69
2023/09/16 19:14:41;;;;;;;11.90;6.10;;;;;;;18.11;53.23;100274.45;79662;1293;3011651;-69
2023/09/16 19:17:10;;;;;;;11.30;7.20;;;;;;;18.12;53.05;100278.66;78595;1296;3028626;-69
2023/09/16 19:19:36;;;;;;;10.50;5.90;;;;;;;18.08;53.01;100273.45;80006;1293;3013076;-68
2023/09/16 19:22:04;;;;;;;9.90;6.30;;;;;;;18.04;53.36;100272.49;79754;1295;3011586;-68
2023/09/16 19:24:36;;;;;;;13.70;5.80;;;;;;;17.99;53.52;100271.70;78605;1295;3057807;-66
2023/09/16 19:27:04;;;;;;;11.10;6.10;;;;;;;17.98;53.56;100273.02;79856;1293;3013081;-68
2023/09/16 19:29:33;;;;;;;8.00;5.70;;;;;;;17.94;53.71;100272.56;78559;1294;3052680;-72
2023/09/16 19:32:00;;;;;;;11.70;5.70;;;;;;;17.94;53.95;100273.67;79916;1297;3019106;-63
2023/09/16 19:34:30;;;;;;;10.50;6.40;;;;;;;17.88;54.01;100275.69;79874;1292;3011533;-68
2023/09/16 19:36:58;;;;;;;10.80;5.70;;;;;;;17.83;54.15;100275.16;78523;1293;3069061;-68
2023/09/16 19:39:27;;;;;;;13.10;5.80;;;;;;;17.82;54.56;100273.52;79745;1293;3012839;-72
2023/09/16 19:41:54;;;;;;;10.60;6.10;;;;;;;17.73;55.04;100273.84;79745;1292;3011743;-69
2023/09/16 19:44:22;;;;;;;11.30;6.30;;;;;;;17.67;55.29;100276.61;78661;1294;3053868;-66
2023/09/16 19:46:49;;;;;;;8.90;6.00;;;;;;;17.65;55.45;100280.66;79953;1297;3013601;-67
2023/09/16 19:49:16;;;;;;;8.90;6.10;;;;;;;17.64;55.46;100280.00;80498;1294;3011683;-70
2023/09/16 19:51:44;;;;;;;9.50;6.30;;;;;;;17.59;55.32;100275.58;79150;1292;3068893;-66
2023/09/16 19:54:12;;;;;;;11.50;6.30;;;;;;;17.54;55.57;100278.84;80068;1295;3013487;-62
2023/09/16 19:56:39;;;;;;;9.60;6.30;;;;;;;17.52;55.52;100272.80;79696;1292;3011765;-68
2023/09/16 19:59:07;;;;;;;9.10;5.70;;;;;;;17.52;56.01;100272.84;78403;1295;3051702;-67
2023/09/16 20:01:34;;;;;;;9.90;6.10;;;;;;;17.51;55.84;100269.70;79604;1292;3013025;-68
2023/09/16 20:04:00;;;;;;;10.50;6.50;;;;;;;17.50;55.87;100271.92;79686;1293;3011895;-70
2023/09/16 20:06:28;;;;;;;10.40;6.40;;;;;;;17.45;56.20;100273.29;78329;1295;3028893;-68
2023/09/16 20:08:55;;;;;;;8.80;5.90;;;;;;;17.43;56.12;100275.94;80256;1293;3018901;-68
2023/09/16 20:11:22;;;;;;;12.40;6.10;;;;;;;17.40;56.54;100280.98;81818;1293;3011685;-68
2023/09/16 20:13:50;;;;;;;13.50;6.40;;;;;;;17.35;56.64;100283.13;80141;1298;3026778;-66
2023/09/16 20:16:16;;;;;;;10.40;6.20;;;;;;;17.31;56.92;100278.48;79765;1297;3013564;-73
2023/09/16 20:18:43;;;;;;;11.40;6.50;;;;;;;17.28;56.65;100282.22;79860;1294;3011607;-73
2023/09/16 20:21:11;;;;;;;8.00;5.70;;;;;;;17.28;56.97;100283.11;78469;1292;3027292;-74
2023/09/16 20:23:38;;;;;;;8.10;5.90;;;;;;;17.23;57.05;100285.84;79919;1292;3013266;-70
2023/09/16 20:26:04;;;;;;;11.70;5.30;;;;;;;17.19;57.52;100288.08;79800;1291;3013905;-71
2023/09/16 20:28:32;;;;;;;9.10;6.20;;;;;;;17.18;57.38;100288.98;78499;1296;3026589;-71
2023/09/16 20:30:59;;;;;;;14.20;6.30;;;;;;;17.17;57.52;100287.87;79719;1294;3012947;-70
2023/09/16 20:33:25;;;;;;;10.60;6.20;;;;;;;17.12;57.74;100284.35;79764;1296;3012815;-71
2023/09/16 20:35:53;;;;;;;12.70;5.90;;;;;;;17.10;57.75;100285.15;78529;1297;3027410;-70
2023/09/16 20:38:20;;;;;;;9.20;5.70;;;;;;;17.11;57.83;100283.31;79751;1293;3012905;-71
2023/09/16 20:40:46;;;;;;;9.90;5.80;;;;;;;17.10;58.20;100283.58;79727;1292;3012060;-69
2023/09/16 20:43:15;;;;;;;8.30;5.30;;;;;;;17.11;57.93;100285.83;78679;1295;3028082;-72
2023/09/16 20:45:42;;;;;;;7.30;5.20;;;;;;;17.08;58.14;100284.61;79753;1294;3011727;-72
2023/09/16 20:48:08;;;;;;;15.60;5.80;;;;;;;17.05;58.53;100283.09;79745;1293;3011581;-71
2023/09/16 20:50:37;;;;;;;10.10;5.90;;;;;;;17.00;58.63;100280.48;78599;1296;3069239;-70
2023/09/16 20:53:05;;;;;;;9.30;5.70;;;;;;;16.98;58.56;100285.02;79904;1293;3012692;-70
2023/09/16 20:55:33;;;;;;;8.70;5.90;;;;;;;16.98;58.66;100286.98;79633;1294;3011904;-69
2023/09/16 20:58:03;;;;;;;9.40;5.70;;;;;;;16.94;58.86;100291.86;78393;1297;3053884;-73
2023/09/16 21:00:30;;;;;;;12.40;6.20;;;;;;;16.89;59.33;100294.00;79954;1296;3012937;-70
2023/09/16 21:03:00;;;;;;;10.20;6.00;;;;;;;16.86;59.35;100298.06;79429;1295;3011713;-70
2023/09/16 21:05:27;;;;;;;13.20;5.90;;;;;;;16.88;59.15;100300.63;79913;1295;3013683;-70
2023/09/16 21:07:56;;;;;;;13.50;5.60;;;;;;;16.81;59.69;100296.64;79249;1294;3011558;-71
2023/09/16 21:10:27;;;;;;;9.60;6.20;;;;;;;16.80;59.70;100299.21;79694;1293;3013190;-69
2023/09/16 21:12:56;;;;;;;8.90;5.90;;;;;;;16.76;59.88;100298.05;78616;1297;3049688;-70
2023/09/16 21:15:22;;;;;;;10.50;6.10;;;;;;;16.66;60.10;100296.86;79779;1297;3012567;-72
2023/09/16 21:17:49;;;;;;;8.10;5.50;;;;;;;16.65;60.30;100292.73;79829;1293;3013282;-71
2023/09/16 21:20:18;;;;;;;6.60;5.50;;;;;;;16.63;60.43;100297.28;78303;1297;3026695;-71
2023/09/16 21:22:45;;;;;;;8.80;5.80;;;;;;;16.64;60.51;100295.11;79731;1294;3013232;-72
2023/09/16 21:25:13;;;;;;;10.90;6.30;;;;;;;16.60;60.68;100295.87;79867;1293;3011480;-70
2023/09/16 21:27:41;;;;;;;12.00;6.40;;;;;;;16.66;60.36;100295.70;78532;1296;3048977;-70
2023/09/16 21:30:09;;;;;;;8.80;5.70;;;;;;;16.64;60.56;100291.56;79678;1294;3011562;-70
2023/09/16 21:32:36;;;;;;;7.90;5.70;;;;;;;16.67;60.17;100287.64;79951;1295;3013713;-69
2023/09/16 21:35:05;;;;;;;9.20;5.10;;;;;;;16.63;60.70;100287.54;78467;1294;3051791;-72
2023/09/16 21:37:32;;;;;;;12.80;5.90;;;;;;;16.61;60.84;100288.44;79842;1295;3013887;-71
2023/09/16 21:40:03;;;;;;;10.30;5.80;;;;;;;16.58;60.80;100293.55;79160;1293;3011759;-68
2023/09/16 21:42:30;;;;;;;8.90;5.70;;;;;;;16.55;60.62;100291.27;79808;1293;3013047;-71
2023/09/16 21:44:57;;;;;;;8.20;6.30;;;;;;;16.54;60.93;100293.11;79685;1294;3011635;-73
2023/09/16 21:47:26;;;;;;;10.80;6.70;;;;;;;16.54;61.09;100299.70;78430;1296;3049965;-69
2023/09/16 21:49:53;;;;;;;12.80;6.00;;;;;;;16.52;61.19;100296.12;79616;1294;3013261;-65
2023/09/16 21:52:19;;;;;;;8.50;6.20;;;;;;;16.50;61.19;100297.16;79717;1292;3011502;-72
2023/09/16 21:54:47;;;;;;;12.50;7.30;;;;;;;16.48;61.38;100299.60;78483;1296;3050362;-72
2023/09/16 21:57:14;;;;;;;14.30;7.50;;;;;;;16.48;61.41;100301.38;79945;1293;3018865;-70
2023/09/16 21:59:41;;;;;;;13.70;7.60;;;;;;;16.44;61.66;100302.17;79651;1297;3011826;-68
2023/09/16 22:02:09;;;;;;;12.80;8.10;;;;;;;16.44;61.58;100303.23;78494;1297;3049273;-71
2023/09/16 22:04:35;;;;;;;11.20;7.90;;;;;;;16.43;61.50;100304.55;79764;1296;3013519;-69
2023/09/16 22:07:02;;;;;;;11.50;7.40;;;;;;;16.42;61.62;100312.73;79544;1294;3011666;-67
2023/09/16 22:09:30;;;;;;;15.50;8.30;;;;;;;16.40;61.65;100311.29;78446;1297;3026190;-67
2023/09/16 22:11:57;;;;;;;13.70;8.80;;;;;;;16.34;62.06;100314.02;79595;1294;3013771;-67
2023/09/16 22:14:24;;;;;;;11.80;8.10;;;;;;;16.35;62.00;100315.16;79582;1294;3011892;-67
2023/09/16 22:16:52;;;;;;;12.10;8.40;;;;;;;16.32;62.20;100315.95;78386;1293;3028706;-68
2023/09/16 22:19:18;;;;;;;17.10;7.50;;;;;;;16.25;62.37;100314.84;79695;1297;3013281;-64
2023/09/16 22:21:45;;;;;;;13.70;7.60;;;;;;;16.16;62.84;100313.73;79608;1293;3011464;-68
2023/09/16 22:24:13;;;;;;;13.80;6.80;;;;;;;16.11;62.95;100309.46;78383;1293;3026796;-71
2023/09/16 22:26:40;;;;;;;11.20;7.30;;;;;;;16.13;62.42;100307.39;79820;1292;3013047;-68
2023/09/16 22:29:07;;;;;;;14.70;7.10;;;;;;;16.14;62.82;100306.98;79732;1292;3011625;-67
2023/09/16 22:31:37;;;;;;;10.70;6.70;;;;;;;16.10;62.86;100309.16;78530;1291;3048801;-68
2023/09/16 22:34:04;;;;;;;13.40;7.30;;;;;;;16.09;62.92;100312.92;79764;1292;3013531;-67
2023/09/16 22:36:31;;;;;;;13.60;7.70;;;;;;;16.02;63.05;100312.88;79823;1291;3011881;-69
2023/09/16 22:38:59;;;;;;;12.50;8.10;;;;;;;16.02;63.01;100316.29;78544;1295;3050896;-65
2023/09/16 22:41:25;;;;;;;12.30;7.90;;;;;;;15.96;63.43;100316.16;79796;1292;3013191;-67
2023/09/16 22:43:53;;;;;;;16.80;8.60;;;;;;;15.92;63.52;100313.08;79799;1291;3013612;-68
2023/09/16 22:46:20;;;;;;;17.60;7.80;;;;;;;15.95;63.72;100313.39;78606;1293;3050056;-70
2023/09/16 22:48:47;;;;;;;14.40;8.40;;;;;;;15.92;63.69;100316.09;79782;1296;3018425;-71
2023/09/16 22:51:13;;;;;;;13.20;8.10;;;;;;;15.84;64.01;100314.84;79708;1294;3011777;-70
2023/09/16 22:53:41;;;;;;;12.40;7.90;;;;;;;15.83;63.95;100316.71;78433;1294;3026515;-67
2023/09/16 22:56:08;;;;;;;15.10;9.30;;;;;;;15.78;64.30;100312.94;79680;1293;3012921;-72
2023/09/16 22:58:34;;;;;;;11.60;8.10;;;;;;;15.68;64.80;100314.30;79766;1297;3011606;-65
2023/09/16 23:01:09;;;;;;;12.00;8.40;;;;;;;15.66;64.93;100317.30;78695;1294;3028136;-73
2023/09/16 23:03:38;;;;;;;11.70;8.10;;;;;;;15.72;64.83;100317.44;79358;1294;3011831;-73
2023/09/16 23:06:04;;;;;;;11.20;8.10;;;;;;;15.73;64.40;100318.40;79655;1297;3013134;-74
2023/09/16 23:08:31;;;;;;;12.90;8.50;;;;;;;15.70;64.78;100318.09;79618;1294;3011676;-76
2023/09/16 23:10:59;;;;;;;13.10;7.80;;;;;;;15.67;65.11;100315.83;78362;1293;3027438;-74
2023/09/16 23:13:28;;;;;;;17.70;9.00;;;;;;;15.65;65.04;100312.39;79732;1294;3012960;-76
2023/09/16 23:15:57;;;;;;;14.50;7.70;;;;;;;15.62;65.16;100313.13;79154;1293;3013450;-75
2023/09/16 23:18:24;;;;;;;12.50;9.10;;;;;;;15.61;65.07;100312.34;79638;1297;3013231;-72
2023/09/16 23:20:55;;;;;;;17.40;9.80;;;;;;;15.58;65.26;100315.69;79707;1296;3011840;-75
2023/09/16 23:23:25;;;;;;;14.40;10.00;;;;;;;15.55;65.58;100310.44;78846;1293;3053472;-75
2023/09/16 23:25:53;;;;;;;17.60;10.10;;;;;;;15.54;65.51;100310.30;79982;1297;3012874;-73
2023/09/16 23:28:22;;;;;;;18.70;11.10;;;;;;;15.54;65.41;100310.67;79608;1294;3011639;-76
2023/09/16 23:30:48;;;;;;;18.10;11.20;;;;;;;15.54;65.61;100306.97;80119;1294;3012963;-75
2023/09/16 23:33:16;;;;;;;17.10;10.50;;;;;;;15.53;65.60;100307.39;79811;1296;3012830;-73
2023/09/16 23:35:45;;;;;;;19.60;12.60;;;;;;;15.52;65.64;100305.15;78425;1296;3051009;-74
2023/09/16 23:38:13;;;;;;;18.90;11.80;;;;;;;15.52;65.50;100307.28;79587;1294;3013757;-72
2023/09/16 23:40:42;;;;;;;19.60;11.80;;;;;;;15.48;65.85;100306.53;79161;1296;3011748;-73
2023/09/16 23:43:08;;;;;;;19.30;12.60;;;;;;;15.42;66.05;100306.70;79649;1297;3011610;-73
2023/09/16 23:45:35;;;;;;;23.40;13.90;;;;;;;15.38;66.03;100303.30;79649;1293;3011815;-71
2023/09/16 23:48:05;;;;;;;19.80;13.50;;;;;;;15.36;66.03;100303.39;78504;1297;3026160;-72
2023/09/16 23:50:32;;;;;;;21.00;13.40;;;;;;;15.30;66.55;100300.87;79631;1294;3012938;-72
2023/09/16 23:52:58;;;;;;;24.00;13.20;;;;;;;15.30;66.47;100304.02;79753;1294;3011920;-74
2023/09/16 23:55:26;;;;;;;24.20;13.20;;;;;;;15.30;66.38;100307.05;78596;1293;3054407;-71
2023/09/16 23:57:53;;;;;;;19.30;12.40;;;;;;;15.32;66.32;100308.66;79740;1294;3013125;-73
